Terminal Aerodrome Forecast
Issued by NWS Upton, NY

Home | Current Version | Previous Version | Text Only | Print | Product List | Glossary On
Versions: 1 2 3 4 5 6 7 8 9 10 11 12 13 14 15 16 17 18 19 20 21 22 23 24 25 26 27 28 29 30
000
FTUS41 KOKX 250500
TAFEWR
TAF
KEWR 250531Z 2506/2612 35011KT P6SM SKC
     FM250800 VRB04KT P6SM SCT250
     FM251500 15009KT P6SM SCT250
     FM260000 16010KT 6SM -RA SCT020 OVC035
     FM260400 12012KT 5SM -RA BR OVC020
     FM260700 32012KT 4SM -RA BR OVC010=

USA.gov is the U.S. government's official web portal to all federal, state and local government web resources and services.